LRCL/CLJ METAR and TAF weather

Enter ICAO airport designator
Station Type Date Time Source
LRCL METAR 2020/09/20 13:00 UTC NOAA

LRCL 201300Z 11007KT 080V140 CAVOK 23/03 Q1019


Station Type Date Time Source
LRCL Decoded METAR 2020/09/20 13:00 UTC NOAA

Cluj-Napoca, Romania (LRCL) 46-47N 023-34E 413M
Sep 20, 2020 - 09:00 AM EDT / 2020.09.20 1300 UTC
Wind: from the ESE (110 degrees) at 8 MPH (7 KT) (direction variable):0
Visibility: greater than 7 mile(s):0
Temperature: 73 F (23 C)
Dew Point: 37 F (3 C)
Relative Humidity: 26%
Pressure (altimeter): 30.09 in. Hg (1019 hPa)
ob: LRCL 201300Z 11007KT 080V140 CAVOK 23/03 Q1019
cycle: 13

Station Type Date Time Source
LRCL TAF 2007/05/23 16:57 UTC NOAA

TAF
AMD LRCL 231657Z 231607 VRB02MPS 9999 SCT030 BKN080
TEMPO 1719 VRB15G20MPS 1500 TSRAGR SCT010 BKN020CB OVC080

Example: see airport list